createdAt,value
2022-10-22T00:00:47.309Z,9.77
2022-10-22T00:03:14.471Z,9.45
2022-10-22T00:05:41.684Z,9.77
2022-10-22T00:08:08.944Z,8.95
2022-10-22T00:10:38.296Z,9.00
2022-10-22T00:13:05.687Z,9.52
2022-10-22T00:15:32.980Z,9.55
2022-10-22T00:18:00.197Z,9.75
2022-10-22T00:20:27.380Z,11.82
2022-10-22T00:22:54.677Z,10.20
2022-10-22T00:25:22.056Z,9.40
2022-10-22T00:27:49.245Z,8.77
2022-10-22T00:30:16.606Z,9.07
2022-10-22T00:32:43.882Z,9.20
2022-10-22T00:35:11.081Z,9.13
2022-10-22T00:37:38.424Z,8.80
2022-10-22T00:40:05.896Z,9.45
2022-10-22T00:42:33.121Z,9.65
2022-10-22T00:45:12.512Z,9.27
2022-10-22T00:47:41.485Z,9.23
2022-10-22T00:50:11.629Z,9.55
2022-10-22T00:52:39.546Z,9.57
2022-10-22T00:55:07.280Z,9.38
2022-10-22T00:57:35.383Z,9.75
2022-10-22T01:00:02.763Z,9.15
2022-10-22T01:02:29.987Z,9.93
2022-10-22T01:04:57.198Z,9.20
2022-10-22T01:07:25.095Z,9.15
2022-10-22T01:10:01.627Z,9.15
2022-10-22T01:12:40.869Z,8.65
2022-10-22T01:15:18.736Z,8.70
2022-10-22T01:18:12.072Z,8.77
2022-10-22T01:21:01.748Z,9.77
2022-10-22T01:23:48.323Z,9.15
2022-10-22T01:26:34.362Z,8.88
2022-10-22T01:29:01.752Z,9.73
2022-10-22T01:31:39.034Z,10.00
2022-10-22T01:34:08.864Z,10.48
2022-10-22T01:36:36.500Z,10.10
2022-10-22T01:39:04.521Z,10.13
2022-10-22T01:41:31.984Z,9.70
2022-10-22T01:43:59.174Z,10.30
2022-10-22T01:46:27.930Z,10.43
2022-10-22T01:49:04.416Z,9.88
2022-10-22T01:51:55.867Z,10.10
2022-10-22T01:54:32.325Z,9.60
2022-10-22T01:57:09.488Z,9.35
2022-10-22T01:59:45.687Z,9.15
2022-10-22T02:02:22.230Z,9.48
2022-10-22T02:04:51.352Z,9.48
2022-10-22T02:07:20.413Z,9.38
2022-10-22T02:09:48.447Z,9.45
2022-10-22T02:12:16.421Z,8.88
2022-10-22T02:14:44.540Z,10.10
2022-10-22T02:17:14.353Z,9.23
2022-10-22T02:19:41.527Z,8.98
2022-10-22T02:22:08.891Z,9.38
2022-10-22T02:24:36.336Z,8.93
2022-10-22T02:27:25.961Z,9.68
2022-10-22T02:29:58.224Z,10.02
2022-10-22T02:32:27.473Z,9.88
2022-10-22T02:34:56.091Z,10.18
2022-10-22T02:37:25.144Z,9.07
2022-10-22T02:39:52.970Z,8.98
2022-10-22T02:42:20.305Z,9.88
2022-10-22T02:44:47.503Z,8.63
2022-10-22T02:47:14.924Z,9.95
2022-10-22T02:49:42.404Z,9.63
2022-10-22T02:52:09.604Z,9.50
2022-10-22T02:54:36.762Z,9.02
2022-10-22T02:57:04.463Z,9.10
2022-10-22T02:59:31.768Z,9.63
2022-10-22T03:01:58.937Z,9.55
2022-10-22T03:04:26.149Z,9.80
2022-10-22T03:06:53.380Z,9.50
2022-10-22T03:09:22.743Z,9.85
2022-10-22T03:11:52.075Z,9.43
2022-10-22T03:14:19.626Z,11.07
2022-10-22T03:16:46.913Z,9.07
2022-10-22T03:19:14.075Z,9.70
2022-10-22T03:21:43.470Z,9.18
2022-10-22T03:24:14.107Z,8.80
2022-10-22T03:26:42.038Z,9.85
2022-10-22T03:29:10.968Z,10.60
2022-10-22T03:31:38.286Z,9.15
2022-10-22T03:34:05.452Z,10.63
2022-10-22T03:36:33.334Z,9.85
2022-10-22T03:39:01.583Z,10.43
2022-10-22T03:41:29.339Z,10.80
2022-10-22T03:43:57.469Z,10.32
2022-10-22T03:46:24.800Z,11.48
2022-10-22T03:48:51.992Z,10.55
2022-10-22T03:51:19.623Z,10.77
2022-10-22T03:53:46.897Z,10.60
2022-10-22T03:56:14.643Z,10.82
2022-10-22T03:58:42.365Z,11.05
2022-10-22T04:01:11.216Z,10.70
2022-10-22T04:03:38.472Z,11.15
2022-10-22T04:06:07.025Z,11.73
2022-10-22T04:08:34.292Z,10.35
2022-10-22T04:11:01.566Z,11.57
2022-10-22T04:13:28.787Z,11.52
2022-10-22T04:15:56.145Z,12.15
2022-10-22T04:18:23.851Z,11.60
2022-10-22T04:20:52.767Z,12.20
2022-10-22T04:23:19.963Z,12.27
2022-10-22T04:25:47.212Z,12.10
2022-10-22T04:28:14.437Z,11.75
2022-10-22T04:30:41.798Z,11.30
2022-10-22T04:33:08.949Z,11.85
2022-10-22T04:35:38.830Z,13.45
2022-10-22T04:38:06.095Z,13.02
2022-10-22T04:40:33.351Z,12.55
2022-10-22T04:43:00.597Z,14.15
2022-10-22T04:45:27.965Z,14.90
2022-10-22T04:47:55.225Z,15.13
2022-10-22T04:50:22.426Z,15.23
2022-10-22T04:52:49.608Z,16.25
2022-10-22T04:55:16.907Z,17.25
2022-10-22T04:57:44.295Z,16.98
2022-10-22T05:00:11.783Z,14.35
2022-10-22T05:02:39.088Z,16.48
2022-10-22T05:05:06.327Z,15.00
2022-10-22T05:07:33.522Z,16.05
2022-10-22T05:10:02.274Z,16.35
2022-10-22T05:12:30.842Z,15.88
2022-10-22T05:14:58.341Z,14.10
2022-10-22T05:17:25.587Z,16.02
2022-10-22T05:19:53.204Z,16.67
2022-10-22T05:22:23.131Z,14.60
2022-10-22T05:24:50.448Z,17.25
2022-10-22T05:29:49.805Z,18.83
2022-10-22T05:32:17.088Z,18.80
2022-10-22T05:34:44.358Z,21.33
2022-10-22T05:37:11.560Z,19.60
2022-10-22T05:39:40.709Z,19.10
2022-10-22T05:42:07.927Z,21.63
2022-10-22T05:44:35.172Z,21.88
2022-10-22T05:47:02.519Z,23.48
2022-10-22T05:49:29.851Z,21.90
2022-10-22T05:51:57.055Z,21.55
2022-10-22T05:54:24.410Z,21.00
2022-10-22T05:56:51.615Z,23.15
2022-10-22T05:59:18.855Z,23.10
2022-10-22T06:01:46.055Z,23.77
2022-10-22T06:04:14.140Z,22.27
2022-10-22T06:06:51.575Z,25.67
2022-10-22T06:09:20.773Z,24.88
2022-10-22T06:11:48.446Z,24.73
2022-10-22T06:14:15.759Z,23.88
2022-10-22T06:16:45.278Z,27.95
2022-10-22T06:19:13.244Z,27.92
2022-10-22T06:21:40.624Z,26.40
2022-10-22T06:24:08.063Z,24.25
2022-10-22T06:26:35.231Z,28.73
2022-10-22T06:29:02.688Z,25.92
2022-10-22T06:31:36.532Z,25.70
2022-10-22T06:34:04.651Z,24.23
2022-10-22T06:36:31.907Z,25.58
2022-10-22T06:38:59.262Z,26.20
2022-10-22T06:41:28.746Z,27.27
2022-10-22T06:44:17.940Z,26.23
2022-10-22T06:46:45.244Z,28.27
2022-10-22T06:49:14.184Z,26.60
2022-10-22T06:51:41.529Z,27.88
2022-10-22T06:54:08.941Z,27.30
2022-10-22T06:56:36.191Z,25.45
2022-10-22T06:59:03.839Z,29.15
2022-10-22T07:01:32.792Z,28.75
2022-10-22T07:04:00.421Z,29.95
2022-10-22T07:06:28.865Z,27.83
2022-10-22T07:08:56.497Z,24.35
2022-10-22T07:11:25.144Z,25.63
2022-10-22T07:13:54.333Z,27.48
2022-10-22T07:16:21.573Z,26.42
2022-10-22T07:18:49.049Z,25.15
2022-10-22T07:21:17.840Z,29.25
2022-10-22T07:23:45.090Z,26.60
2022-10-22T07:26:24.800Z,25.98
2022-10-22T07:28:52.141Z,27.23
2022-10-22T07:31:19.769Z,27.70
2022-10-22T07:33:49.275Z,29.90
2022-10-22T07:36:20.228Z,30.15
2022-10-22T07:38:48.647Z,33.07
2022-10-22T07:41:16.573Z,29.55
2022-10-22T07:43:44.039Z,30.20
2022-10-22T07:46:11.642Z,32.95
2022-10-22T07:48:39.295Z,29.65
2022-10-22T07:51:06.660Z,31.45
2022-10-22T07:53:33.953Z,28.60
2022-10-22T07:56:03.409Z,29.08
2022-10-22T07:58:33.093Z,30.00
2022-10-22T08:01:01.376Z,30.30
2022-10-22T08:03:28.891Z,29.45
2022-10-22T08:05:56.189Z,28.75
2022-10-22T08:08:27.089Z,27.35
2022-10-22T08:10:58.832Z,26.55
2022-10-22T08:13:27.399Z,28.48
2022-10-22T08:15:57.394Z,26.38
2022-10-22T08:18:25.306Z,27.13
2022-10-22T08:20:52.680Z,26.80
2022-10-22T08:23:23.015Z,28.23
2022-10-22T08:25:53.939Z,26.92
2022-10-22T08:28:22.132Z,25.13
2022-10-22T08:30:49.970Z,26.20
2022-10-22T08:33:17.345Z,27.02
2022-10-22T08:35:49.268Z,27.85
2022-10-22T08:38:16.583Z,29.00
2022-10-22T08:43:36.523Z,28.40
2022-10-22T08:46:06.535Z,26.52
2022-10-22T08:48:51.387Z,24.85
2022-10-22T08:51:21.134Z,27.92
2022-10-22T08:54:07.623Z,23.90
2022-10-22T08:56:39.626Z,27.10
2022-10-22T08:59:12.857Z,25.63
2022-10-22T09:01:44.173Z,23.92
2022-10-22T09:04:30.435Z,25.13
2022-10-22T09:07:06.282Z,25.95
2022-10-22T09:09:44.176Z,26.23
2022-10-22T09:12:20.300Z,22.25
2022-10-22T09:14:47.905Z,20.52
2022-10-22T09:17:27.075Z,23.70
2022-10-22T09:20:12.789Z,24.15
2022-10-22T09:22:50.942Z,22.38
2022-10-22T09:25:25.925Z,21.20
2022-10-22T09:27:58.137Z,19.67
2022-10-22T09:30:26.908Z,23.70
2022-10-22T09:33:02.990Z,22.92
2022-10-22T09:35:49.272Z,21.42
2022-10-22T09:38:20.482Z,23.52
2022-10-22T09:40:55.463Z,23.60
2022-10-22T09:43:22.674Z,22.27
2022-10-22T09:45:56.254Z,22.25
2022-10-22T09:48:30.428Z,21.77
2022-10-22T09:51:19.142Z,20.10
2022-10-22T09:53:47.761Z,21.13
2022-10-22T09:56:21.893Z,20.05
2022-10-22T09:58:51.115Z,20.08
2022-10-22T10:01:22.613Z,20.48
2022-10-22T10:03:50.173Z,19.92
2022-10-22T10:06:21.549Z,18.00
2022-10-22T10:08:49.349Z,20.75
2022-10-22T10:11:29.229Z,18.35
2022-10-22T10:14:06.274Z,20.08
2022-10-22T10:16:52.509Z,17.48
2022-10-22T10:19:30.393Z,18.45
2022-10-22T10:22:06.654Z,17.67
2022-10-22T10:24:45.885Z,17.08
2022-10-22T10:27:20.764Z,18.08
2022-10-22T10:29:56.184Z,16.67
2022-10-22T10:32:42.143Z,16.85
2022-10-22T10:35:28.507Z,15.05
2022-10-22T10:38:14.258Z,16.75
2022-10-22T10:40:44.954Z,16.65
2022-10-22T10:43:15.506Z,18.73
2022-10-22T10:45:55.597Z,17.50
2022-10-22T10:48:23.775Z,16.80
2022-10-22T10:50:57.110Z,16.30
2022-10-22T10:53:27.329Z,16.02
2022-10-22T10:55:54.671Z,16.33
2022-10-22T10:58:24.835Z,17.00
2022-10-22T11:01:02.117Z,14.88
2022-10-22T11:03:41.630Z,14.80
2022-10-22T11:06:10.628Z,10.35
2022-10-22T11:08:39.951Z,12.45
2022-10-22T11:13:49.744Z,14.68
2022-10-22T11:16:16.917Z,14.98
2022-10-22T11:18:48.807Z,14.15
2022-10-22T11:24:03.434Z,11.63
2022-10-22T11:26:45.041Z,13.10
2022-10-22T11:29:13.421Z,17.00
2022-10-22T11:31:42.136Z,15.32
2022-10-22T11:34:33.234Z,14.20
2022-10-22T11:37:01.949Z,12.57
2022-10-22T11:39:41.677Z,12.00
2022-10-22T11:42:18.879Z,12.45
2022-10-22T11:44:47.574Z,11.18
2022-10-22T11:47:20.090Z,11.30
2022-10-22T11:49:56.469Z,9.77
2022-10-22T11:52:25.517Z,10.73
2022-10-22T11:54:55.237Z,11.90
2022-10-22T11:57:39.445Z,11.77
2022-10-22T12:00:11.487Z,10.45
2022-10-22T12:02:41.546Z,10.18
2022-10-22T12:05:19.305Z,9.87
2022-10-22T12:07:58.759Z,9.77
2022-10-22T12:10:55.552Z,10.05
2022-10-22T12:13:24.555Z,9.88
2022-10-22T12:15:57.205Z,7.32
2022-10-22T12:18:26.520Z,9.40
2022-10-22T12:20:54.348Z,8.77
2022-10-22T12:23:25.512Z,9.55
2022-10-22T12:25:53.827Z,5.60
2022-10-22T12:28:21.080Z,5.93
2022-10-22T12:30:48.368Z,4.30
2022-10-22T12:33:20.840Z,3.40
2022-10-22T12:38:48.969Z,3.30
2022-10-22T12:41:16.626Z,2.70
2022-10-22T12:43:44.005Z,2.65
2022-10-22T12:46:16.310Z,2.55
2022-10-22T12:48:44.771Z,2.00
2022-10-22T12:51:20.233Z,2.30
2022-10-22T12:53:50.045Z,2.28
2022-10-22T12:56:21.682Z,2.30
2022-10-22T12:58:52.353Z,2.35
2022-10-22T13:01:19.971Z,1.90
2022-10-22T13:03:52.411Z,1.75
2022-10-22T13:06:19.731Z,1.75
2022-10-22T13:09:02.183Z,2.20
2022-10-22T13:11:34.091Z,2.00
2022-10-22T13:16:30.900Z,2.22
2022-10-22T13:18:58.255Z,1.83
2022-10-22T13:21:27.463Z,1.98
2022-10-22T13:23:56.495Z,1.80
2022-10-22T13:26:26.043Z,1.92
2022-10-22T13:28:54.860Z,1.83
2022-10-22T13:31:26.679Z,2.67
2022-10-22T13:33:57.001Z,1.80
2022-10-22T13:36:24.709Z,1.80
2022-10-22T13:38:52.434Z,1.92
2022-10-22T13:41:20.707Z,1.60
2022-10-22T13:43:48.473Z,2.30
2022-10-22T13:46:16.236Z,2.00
2022-10-22T13:48:50.416Z,2.00
2022-10-22T13:51:19.595Z,2.15
2022-10-22T13:53:47.647Z,2.47
2022-10-22T13:56:19.072Z,1.92
2022-10-22T13:58:47.129Z,2.00
2022-10-22T14:01:25.476Z,2.00
2022-10-22T14:03:55.448Z,2.03
2022-10-22T14:06:23.437Z,2.50
2022-10-22T14:08:55.088Z,2.30
2022-10-22T14:11:22.702Z,1.80
2022-10-22T14:13:50.087Z,1.70
2022-10-22T14:16:19.758Z,1.70
2022-10-22T14:18:48.284Z,1.50
2022-10-22T14:21:16.797Z,1.80
2022-10-22T14:23:45.733Z,1.77
2022-10-22T14:26:20.836Z,2.55
2022-10-22T14:29:08.948Z,2.20
2022-10-22T14:31:37.432Z,2.70
2022-10-22T14:34:04.855Z,2.10
2022-10-22T14:36:32.503Z,2.25
2022-10-22T14:39:00.198Z,2.70
2022-10-22T14:41:28.677Z,3.30
2022-10-22T14:43:56.715Z,3.83
2022-10-22T14:46:24.096Z,3.75
2022-10-22T14:48:53.534Z,3.38
2022-10-22T14:51:23.066Z,4.43
2022-10-22T14:53:50.512Z,4.75
2022-10-22T14:56:22.630Z,4.53
2022-10-22T14:58:50.744Z,4.90
2022-10-22T15:01:18.197Z,4.68
2022-10-22T15:03:46.088Z,5.00
2022-10-22T15:06:14.133Z,4.63
2022-10-22T15:08:41.845Z,4.00
2022-10-22T15:11:11.364Z,4.15
2022-10-22T15:13:40.476Z,4.50
2022-10-22T15:16:08.897Z,4.22
2022-10-22T15:18:36.411Z,4.38
2022-10-22T15:21:05.795Z,3.20
2022-10-22T15:23:33.332Z,2.03
2022-10-22T15:26:00.707Z,2.30
2022-10-22T15:28:28.172Z,3.08
2022-10-22T15:30:57.346Z,3.10
2022-10-22T15:33:27.919Z,3.28
2022-10-22T15:35:55.775Z,3.25
2022-10-22T15:38:23.513Z,3.90
2022-10-22T15:40:50.962Z,3.63
2022-10-22T15:43:20.240Z,3.58
2022-10-22T15:45:55.341Z,3.70
2022-10-22T15:48:27.704Z,3.53
2022-10-22T15:50:55.461Z,2.85
2022-10-22T15:53:22.917Z,2.10
2022-10-22T15:55:50.393Z,1.70
2022-10-22T15:58:17.712Z,1.95
2022-10-22T16:00:45.066Z,2.05
2022-10-22T16:03:12.883Z,2.60
2022-10-22T16:05:40.235Z,2.00
2022-10-22T16:08:07.509Z,2.05
2022-10-22T16:10:37.665Z,2.00
2022-10-22T16:13:05.235Z,2.45
2022-10-22T16:15:32.567Z,1.92
2022-10-22T16:17:59.965Z,2.03
2022-10-22T16:20:27.416Z,2.10
2022-10-22T16:22:55.726Z,2.33
2022-10-22T16:25:23.090Z,4.03
2022-10-22T16:27:51.321Z,5.15
2022-10-22T16:30:19.095Z,7.80
2022-10-22T16:32:46.578Z,8.30
2022-10-22T16:35:13.925Z,8.43
2022-10-22T16:37:41.588Z,6.57
2022-10-22T16:40:10.523Z,5.70
2022-10-22T16:42:37.917Z,4.40
2022-10-22T16:45:05.443Z,3.20
2022-10-22T16:47:32.925Z,3.75
2022-10-22T16:50:00.967Z,4.03
2022-10-22T16:52:28.708Z,3.70
2022-10-22T16:54:58.222Z,4.43
2022-10-22T16:57:25.763Z,6.70
2022-10-22T16:59:53.467Z,11.38
2022-10-22T17:02:21.085Z,17.10
2022-10-22T17:04:48.704Z,11.40
2022-10-22T17:07:16.856Z,8.27
2022-10-22T17:09:44.147Z,6.18
2022-10-22T17:12:11.487Z,6.22
2022-10-22T17:14:41.354Z,6.07
2022-10-22T17:17:08.674Z,7.60
2022-10-22T17:19:38.722Z,6.72
2022-10-22T17:22:06.133Z,6.82
2022-10-22T17:24:33.419Z,6.68
2022-10-22T17:27:00.917Z,6.25
2022-10-22T17:29:28.252Z,6.07
2022-10-22T17:31:55.603Z,5.85
2022-10-22T17:34:23.142Z,5.63
2022-10-22T17:36:50.609Z,5.32
2022-10-22T17:39:18.687Z,5.30
2022-10-22T17:41:46.555Z,6.07
2022-10-22T17:44:14.206Z,7.90
2022-10-22T17:46:41.564Z,9.60
2022-10-22T17:49:13.353Z,10.00
2022-10-22T17:54:10.075Z,9.15
2022-10-22T17:56:40.233Z,9.48
2022-10-22T17:59:09.004Z,12.38
2022-10-22T18:01:37.729Z,11.20
2022-10-22T18:04:06.854Z,9.77
2022-10-22T18:06:35.527Z,8.40
2022-10-22T18:09:07.106Z,9.23
2022-10-22T18:11:36.443Z,12.18
2022-10-22T18:14:04.568Z,11.73
2022-10-22T18:16:31.850Z,14.55
2022-10-22T18:18:59.521Z,15.60
2022-10-22T18:21:28.160Z,14.80
2022-10-22T18:23:56.006Z,11.82
2022-10-22T18:26:26.677Z,9.48
2022-10-22T18:28:55.277Z,7.93
2022-10-22T18:31:23.997Z,7.88
2022-10-22T18:33:51.698Z,7.80
2022-10-22T18:36:20.669Z,7.07
2022-10-22T18:38:52.150Z,6.00
2022-10-22T18:41:20.411Z,6.00
2022-10-22T18:43:54.739Z,6.57
2022-10-22T18:46:22.232Z,7.00
2022-10-22T18:48:49.546Z,8.20
2022-10-22T18:51:17.010Z,7.03
2022-10-22T18:53:58.720Z,7.50
2022-10-22T18:56:32.658Z,6.60
2022-10-22T18:59:00.545Z,6.93
2022-10-22T19:01:31.718Z,5.40
2022-10-22T19:03:59.637Z,7.00
2022-10-22T19:06:34.386Z,6.78
2022-10-22T19:09:05.449Z,7.72
2022-10-22T19:11:33.171Z,7.38
2022-10-22T19:14:00.513Z,7.00
2022-10-22T19:16:28.537Z,9.15
2022-10-22T19:19:00.798Z,10.05
2022-10-22T19:21:28.665Z,10.48
2022-10-22T19:23:57.593Z,9.88
2022-10-22T19:26:26.928Z,8.60
2022-10-22T19:28:55.134Z,8.45
2022-10-22T19:31:23.430Z,7.32
2022-10-22T19:33:51.671Z,7.88
2022-10-22T19:36:19.759Z,7.38
2022-10-22T19:38:48.531Z,7.78
2022-10-22T19:41:18.245Z,5.93
2022-10-22T19:43:47.023Z,6.38
2022-10-22T19:46:15.000Z,6.25
2022-10-22T19:48:43.155Z,6.25
2022-10-22T19:51:19.276Z,5.63
2022-10-22T19:53:47.019Z,8.55
2022-10-22T19:56:17.827Z,12.07
2022-10-22T19:58:45.948Z,10.38
2022-10-22T20:01:15.261Z,9.25
2022-10-22T20:03:43.179Z,8.55
2022-10-22T20:06:11.103Z,6.53
2022-10-22T20:08:39.279Z,6.90
2022-10-22T20:11:08.562Z,6.10
2022-10-22T20:13:37.069Z,5.60
2022-10-22T20:16:05.510Z,5.35
2022-10-22T20:18:36.493Z,5.05
2022-10-22T20:21:07.964Z,4.87
2022-10-22T20:23:36.258Z,5.35
2022-10-22T20:26:05.811Z,5.78
2022-10-22T20:28:33.606Z,4.97
2022-10-22T20:31:01.009Z,5.32
2022-10-22T20:33:28.507Z,5.88
2022-10-22T20:36:02.274Z,5.60
2022-10-22T20:38:30.124Z,5.53
2022-10-22T20:41:05.543Z,6.82
2022-10-22T20:43:33.531Z,5.43
2022-10-22T20:46:01.403Z,6.03
2022-10-22T20:48:33.297Z,5.82
2022-10-22T20:51:01.898Z,5.68
2022-10-22T20:53:30.993Z,6.63
2022-10-22T20:56:00.260Z,6.43
2022-10-22T20:58:30.693Z,6.13
2022-10-22T21:00:58.749Z,5.43
2022-10-22T21:03:26.378Z,5.68
2022-10-22T21:05:58.771Z,5.75
2022-10-22T21:08:30.037Z,5.22
2022-10-22T21:11:01.741Z,4.72
2022-10-22T21:13:32.317Z,5.63
2022-10-22T21:16:00.321Z,5.78
2022-10-22T21:18:28.132Z,6.07
2022-10-22T21:20:56.203Z,6.25
2022-10-22T21:23:23.685Z,5.68
2022-10-22T21:25:58.525Z,4.97
2022-10-22T21:28:27.029Z,4.63
2022-10-22T21:30:55.248Z,4.90
2022-10-22T21:33:22.903Z,5.10
2022-10-22T21:35:54.610Z,5.45
2022-10-22T21:38:24.102Z,5.95
2022-10-22T21:40:51.716Z,5.45
2022-10-22T21:43:19.331Z,5.45
2022-10-22T21:45:47.237Z,5.65
2022-10-22T21:48:14.780Z,6.25
2022-10-22T21:50:45.487Z,5.82
2022-10-22T21:53:13.488Z,6.05
2022-10-22T21:55:41.442Z,5.10
2022-10-22T21:58:09.309Z,6.07
2022-10-22T22:00:38.448Z,5.68
2022-10-22T22:03:07.548Z,5.82
2022-10-22T22:05:34.958Z,5.53
2022-10-22T22:08:02.357Z,6.43
2022-10-22T22:10:30.513Z,6.07
2022-10-22T22:12:59.083Z,8.00
2022-10-22T22:15:26.646Z,9.55
2022-10-22T22:17:53.951Z,7.20
2022-10-22T22:20:21.447Z,9.25
2022-10-22T22:22:48.851Z,11.38
2022-10-22T22:25:16.214Z,9.88
2022-10-22T22:27:43.842Z,7.88
2022-10-22T22:30:11.827Z,7.43
2022-10-22T22:32:39.152Z,5.82
2022-10-22T22:35:06.989Z,5.03
2022-10-22T22:37:34.525Z,4.72
2022-10-22T22:40:02.181Z,4.43
2022-10-22T22:42:29.541Z,4.43
2022-10-22T22:44:56.890Z,5.07
2022-10-22T22:47:24.158Z,4.40
2022-10-22T22:49:51.471Z,4.88
2022-10-22T22:54:49.038Z,4.25
2022-10-22T22:57:16.321Z,4.20
2022-10-22T22:59:43.673Z,4.43
2022-10-22T23:02:11.131Z,4.45
2022-10-22T23:04:38.493Z,4.40
2022-10-22T23:07:06.070Z,3.83
2022-10-22T23:09:33.571Z,4.13
2022-10-22T23:12:00.881Z,4.22
2022-10-22T23:14:28.242Z,3.78
2022-10-22T23:16:55.542Z,3.85
2022-10-22T23:19:23.676Z,4.30
2022-10-22T23:21:52.702Z,4.10
2022-10-22T23:24:22.320Z,4.13
2022-10-22T23:26:50.438Z,4.00
2022-10-22T23:29:19.407Z,4.18
2022-10-22T23:31:47.119Z,3.90
2022-10-22T23:34:15.982Z,3.90
2022-10-22T23:36:43.704Z,4.00
2022-10-22T23:39:12.499Z,4.63
2022-10-22T23:41:40.359Z,3.95
2022-10-22T23:44:08.825Z,4.22
2022-10-22T23:46:38.451Z,3.55
2022-10-22T23:49:06.851Z,3.80
2022-10-22T23:51:34.323Z,4.03
2022-10-22T23:54:08.458Z,4.63
2022-10-22T23:56:35.859Z,4.50
2022-10-22T23:59:03.261Z,4.18
